Time;durP1;ratioP1;P1;durP2;ratioP2;P2;SDS_P1;SDS_P2;PMS_P1;PMS_P2;Temp;Humidity;BMP_temperature;BMP_pressure;BME280_temperature;BME280_humidity;BME280_pressure;Samples;Min_cycle;Max_cycle;Signal;HPM_P1;HPM_P2
2021/10/12 00:00:50;;;;;;;;;7.00;5.00;;;;;13.20;62.74;102046.66;5056519;28;46505;-86
2021/10/12 00:03:15;;;;;;;;;4.00;4.00;;;;;13.12;62.74;102019.97;5037856;28;45668;-86
2021/10/12 00:09:03;;;;;;;;;4.00;4.00;;;;;13.17;62.76;102025.81;5056322;28;45524;-86
2021/10/12 00:11:29;;;;;;;;;6.25;5.50;;;;;12.98;63.16;102003.16;5038423;28;46357;-85
2021/10/12 00:13:54;;;;;;;;;4.00;3.50;;;;;13.16;63.13;102026.75;5039095;28;45574;-85
2021/10/12 00:16:20;;;;;;;;;4.00;4.00;;;;;12.92;63.19;102000.03;5056908;28;45559;-85
2021/10/12 00:18:45;;;;;;;;;6.25;6.00;;;;;12.95;63.65;102006.00;5038085;28;48661;-86
2021/10/12 00:21:12;;;;;;;;;6.00;5.00;;;;;13.10;63.19;102038.44;5037943;28;47015;-87
2021/10/12 00:23:38;;;;;;;;;5.00;5.00;;;;;12.84;63.42;101987.34;5056181;28;45728;-87
2021/10/12 00:26:03;;;;;;;;;4.75;4.75;;;;;12.84;63.17;101987.34;5037959;28;45488;-86
2021/10/12 00:28:30;;;;;;;;;6.00;5.00;;;;;13.09;63.15;102020.94;5038052;28;48568;-86
2021/10/12 00:30:56;;;;;;;;;6.00;5.00;;;;;12.79;63.52;101991.19;5056378;28;46235;-86
2021/10/12 00:33:21;;;;;;;;;6.25;5.00;;;;;12.73;63.16;101970.50;5056646;28;45671;-86
2021/10/12 00:39:08;;;;;;;;;4.75;4.00;;;;;12.84;63.42;101983.88;5059533;28;45697;-86
2021/10/12 00:41:34;;;;;;;;;4.75;4.00;;;;;12.87;63.52;101987.16;5044881;28;47161;-86
2021/10/12 00:44:00;;;;;;;;;5.75;5.25;;;;;12.76;63.26;101967.69;5045100;28;45573;-85
2021/10/12 00:46:26;;;;;;;;;5.25;4.75;;;;;12.63;63.43;101945.69;5044521;28;45596;-84
2021/10/12 00:48:51;;;;;;;;;7.25;5.00;;;;;12.71;63.20;101948.69;5044154;28;46795;-85
2021/10/12 00:51:16;;;;;;;;;6.00;5.00;;;;;13.08;63.44;102013.97;5062926;28;45954;-85
2021/10/12 00:53:42;;;;;;;;;4.75;4.00;;;;;12.81;63.61;101952.47;5041663;28;45877;-85
2021/10/12 00:56:08;;;;;;;;;5.50;4.25;;;;;12.85;63.55;101957.47;5037521;28;45836;-86
2021/10/12 00:58:34;;;;;;;;;4.00;3.75;;;;;13.09;63.60;101985.91;5055609;28;45756;-85
2021/10/12 01:01:00;;;;;;;;;5.25;4.75;;;;;13.11;63.67;101990.16;5055595;28;45994;-85
2021/10/12 01:03:26;;;;;;;;;5.00;4.00;;;;;12.96;63.85;101973.47;5037600;28;45684;-85
2021/10/12 01:09:13;;;;;;;;;6.00;5.00;;;;;12.86;63.52;101940.75;5055714;28;46118;-84
2021/10/12 01:11:38;;;;;;;;;5.75;3.75;;;;;12.88;63.43;101943.28;5055568;28;46186;-84
2021/10/12 01:14:04;;;;;;;;;4.25;3.25;;;;;12.81;63.87;101926.19;5055124;28;45805;-85
2021/10/12 01:16:30;;;;;;;;;5.00;4.00;;;;;12.93;63.52;101951.75;5036594;28;45999;-86
2021/10/12 01:18:58;;;;;;;;;5.25;4.75;;;;;13.06;63.80;101954.50;5036791;28;47527;-85
2021/10/12 01:21:26;;;;;;;;;1.75;1.00;;;;;13.14;63.63;101975.97;5055194;28;46480;-83
2021/10/12 01:23:51;;;;;;;;;7.25;5.00;;;;;12.82;63.77;101917.34;5055009;28;45848;-83
2021/10/12 01:26:17;;;;;;;;;7.50;5.00;;;;;12.94;63.44;101945.56;5036810;28;45751;-84
2021/10/12 01:28:42;;;;;;;;;6.50;4.00;;;;;12.99;63.92;101948.78;5036933;28;47479;-85
2021/10/12 01:31:18;;;;;;;;;5.00;4.25;;;;;13.10;63.34;101951.59;5036517;28;47061;-85
2021/10/12 01:33:44;;;;;;;;;4.25;3.25;;;;;13.08;63.75;101947.34;5037079;28;45724;-85
2021/10/12 01:39:31;;;;;;;;;5.75;5.25;;;;;12.65;63.69;101885.94;5056098;28;45520;-84
2021/10/12 01:41:57;;;;;;;;;5.25;5.00;;;;;12.60;63.98;101868.66;5055977;28;46366;-86
2021/10/12 01:44:22;;;;;;;;;6.50;5.00;;;;;12.84;63.98;101918.13;5058971;28;46056;-85
2021/10/12 01:46:48;;;;;;;;;3.75;3.75;;;;;12.84;63.93;101926.88;5044839;28;45621;-85
2021/10/12 01:49:14;;;;;;;;;5.25;4.75;;;;;12.80;64.10;101933.22;5047978;28;47797;-86
2021/10/12 01:51:39;;;;;;;;;5.75;4.25;;;;;12.57;64.29;101902.19;5067102;28;46431;-86
2021/10/12 01:54:20;;;;;;;;;6.50;5.00;;;;;12.33;64.12;101867.66;5050501;28;45744;-85
2021/10/12 01:56:47;;;;;;;;;4.75;4.75;;;;;12.26;64.14;101874.19;5066126;28;45443;-86
2021/10/12 01:59:12;;;;;;;;;5.50;5.00;;;;;12.59;64.35;101943.22;5045793;28;47147;-86
2021/10/12 02:01:38;;;;;;;;;5.50;5.00;;;;;12.58;64.64;101943.28;5050165;28;48333;-86
2021/10/12 02:04:04;;;;;;;;;5.50;5.00;;;;;12.30;64.23;101894.13;5064475;28;45633;-85
2021/10/12 02:06:29;;;;;;;;;7.25;5.50;;;;;12.18;64.67;101885.16;5049730;28;45638;-84
2021/10/12 02:08:55;;;;;;;;;4.75;4.50;;;;;12.51;64.70;101945.44;5055040;28;47779;-85
2021/10/12 02:11:20;;;;;;;;;5.75;5.00;;;;;12.21;64.52;101910.41;5057019;28;47361;-84
2021/10/12 02:13:45;;;;;;;;;5.00;4.75;;;;;12.33;64.74;101928.09;5054706;28;45911;-86
2021/10/12 02:16:11;;;;;;;;;5.00;3.25;;;;;12.21;64.70;101899.88;5072752;28;45179;-84
2021/10/12 02:18:36;;;;;;;;;4.50;4.25;;;;;12.39;64.93;101922.50;5047019;28;47242;-86
2021/10/12 02:24:23;;;;;;;;;5.00;5.00;;;;;12.26;65.20;101921.50;5056568;28;45695;-84
2021/10/12 02:26:49;;;;;;;;;3.50;3.00;;;;;11.90;64.77;101848.25;5059288;28;45604;-84
2021/10/12 02:29:14;;;;;;;;;6.75;3.75;;;;;11.94;65.13;101854.19;5041308;28;47305;-85
2021/10/12 02:31:40;;;;;;;;;6.25;4.00;;;;;11.86;65.44;101835.41;5058779;28;45631;-85
2021/10/12 02:34:05;;;;;;;;;4.00;3.00;;;;;11.76;65.39;101817.53;5039509;28;45808;-85
2021/10/12 02:39:52;;;;;;;;;8.00;5.00;;;;;11.88;65.26;101876.38;5057602;28;45756;-86
2021/10/12 02:42:18;;;;;;;;;6.25;4.50;;;;;11.81;65.33;101868.94;5057426;28;46348;-86
2021/10/12 02:44:44;;;;;;;;;5.75;4.00;;;;;11.77;65.59;101882.22;5057527;28;45758;-85
2021/10/12 02:47:09;;;;;;;;;4.75;4.50;;;;;12.00;65.75;101922.13;5039034;28;45836;-85
2021/10/12 02:49:35;;;;;;;;;4.00;4.00;;;;;11.98;65.76;101913.50;5057275;28;46895;-85
2021/10/12 02:52:01;;;;;;;;;6.25;6.25;;;;;11.92;65.83;101911.22;5038953;28;46833;-84
2021/10/12 02:54:26;;;;;;;;;6.50;4.75;;;;;11.64;65.82;101857.56;5039209;28;45769;-84
2021/10/12 02:56:52;;;;;;;;;3.75;3.75;;;;;11.60;65.72;101855.22;5057457;28;45610;-85
2021/10/12 02:59:18;;;;;;;;;7.00;4.25;;;;;11.75;66.01;101881.50;5057070;28;46449;-85
2021/10/12 03:01:43;;;;;;;;;5.75;5.00;;;;;11.45;65.79;101848.16;5038993;28;47279;-83
2021/10/12 03:04:09;;;;;;;;;7.50;6.50;;;;;11.83;65.89;101909.06;5037956;28;45979;-84
2021/10/12 03:09:56;;;;;;;;;6.50;4.00;;;;;11.77;66.19;101892.72;5057113;28;45673;-84
2021/10/12 03:12:21;;;;;;;;;4.00;4.00;;;;;11.65;66.58;101882.03;5039190;28;46276;-85
2021/10/12 03:14:47;;;;;;;;;3.00;3.00;;;;;11.71;66.37;101905.34;5038869;28;45794;-85
2021/10/12 03:17:12;;;;;;;;;7.00;5.00;;;;;11.69;66.23;101907.19;5057817;28;45424;-84
2021/10/12 03:19:37;;;;;;;;;7.50;6.25;;;;;11.74;66.44;101911.28;5063353;28;45609;-86
2021/10/12 03:22:14;;;;;;;;;4.00;4.00;;;;;11.63;66.39;101881.28;5063381;28;46081;-84
2021/10/12 03:24:41;;;;;;;;;4.00;4.00;;;;;11.51;66.32;101845.19;5045233;28;45507;-86
2021/10/12 03:27:08;;;;;;;;;4.75;4.75;;;;;11.40;66.49;101831.81;5045780;28;45870;-86
2021/10/12 03:29:33;;;;;;;;;8.25;4.75;;;;;11.43;66.59;101827.25;5045390;28;46588;-85
2021/10/12 03:31:59;;;;;;;;;4.75;4.50;;;;;11.65;66.88;101855.78;5045391;28;48389;-84
2021/10/12 03:34:26;;;;;;;;;3.75;3.75;;;;;11.64;66.61;101865.44;5040316;28;45717;-85
2021/10/12 03:40:14;;;;;;;;;4.00;4.00;;;;;11.44;66.72;101843.84;5056512;28;46077;-85
2021/10/12 03:42:39;;;;;;;;;5.50;4.00;;;;;11.43;66.79;101855.28;5056618;28;45644;-86
2021/10/12 03:45:05;;;;;;;;;4.75;4.00;;;;;11.51;66.85;101867.03;5037904;28;45755;-85
2021/10/12 03:47:30;;;;;;;;;4.00;4.00;;;;;11.36;66.92;101850.38;5038689;28;45565;-86
2021/10/12 03:49:56;;;;;;;;;3.75;3.75;;;;;11.46;66.91;101868.22;5056714;28;45568;-85
2021/10/12 03:52:21;;;;;;;;;4.75;4.50;;;;;11.23;66.84;101830.97;5038632;28;48271;-86
2021/10/12 03:54:47;;;;;;;;;7.50;4.25;;;;;11.46;67.02;101876.09;5039701;28;45879;-85
2021/10/12 03:57:12;;;;;;;;;5.00;4.75;;;;;11.16;67.00;101808.63;5040177;28;45782;-85
2021/10/12 03:59:37;;;;;;;;;4.50;4.00;;;;;11.47;67.00;101872.53;5040147;28;47577;-86
2021/10/12 04:02:03;;;;;;;;;7.25;4.25;;;;;11.43;67.00;101871.88;5056886;28;46341;-85
2021/10/12 04:04:28;;;;;;;;;3.75;3.00;;;;;11.06;67.15;101815.31;5056215;28;45897;-86
2021/10/12 04:10:15;;;;;;;;;7.75;4.75;;;;;11.15;67.25;101838.41;5055944;28;45542;-86
2021/10/12 04:12:41;;;;;;;;;6.00;4.75;;;;;11.23;67.49;101861.59;5037891;28;48080;-85
2021/10/12 04:15:07;;;;;;;;;4.50;4.00;;;;;10.95;67.50;101812.41;5036705;28;45737;-88
2021/10/12 04:17:32;;;;;;;;;5.00;4.00;;;;;11.29;67.65;101869.13;5038558;28;45627;-86
2021/10/12 04:19:57;;;;;;;;;5.00;4.25;;;;;11.08;67.55;101825.69;5037629;28;48619;-86
2021/10/12 04:22:23;;;;;;;;;6.50;4.00;;;;;10.97;67.73;101799.19;5037712;28;47359;-86
2021/10/12 04:24:49;;;;;;;;;4.25;4.00;;;;;10.95;67.46;101807.16;5038789;28;45892;-85
2021/10/12 04:27:14;;;;;;;;;4.00;3.75;;;;;11.20;67.98;101846.88;5039029;28;45888;-84
2021/10/12 04:29:40;;;;;;;;;4.25;4.00;;;;;11.27;67.47;101863.13;5038536;28;48919;-85
2021/10/12 04:32:08;;;;;;;;;7.75;5.00;;;;;11.09;67.50;101840.50;5039044;28;47362;-85
2021/10/12 04:34:34;;;;;;;;;7.50;5.00;;;;;11.29;67.67;101867.34;5056071;28;45708;-86
2021/10/12 04:40:21;;;;;;;;;4.50;4.00;;;;;11.10;67.85;101840.44;5055372;28;45979;-86
2021/10/12 04:42:47;;;;;;;;;6.50;5.25;;;;;10.97;67.85;101815.78;5037644;28;46516;-86
2021/10/12 04:45:12;;;;;;;;;5.00;4.00;;;;;10.99;67.94;101820.94;5038173;28;45767;-85
2021/10/12 04:48:02;;;;;;;;;5.00;4.50;;;;;11.25;67.89;101865.84;5038469;28;46004;-86
2021/10/12 04:50:28;;;;;;;;;7.25;4.00;;;;;10.70;68.06;101770.91;5040892;28;47920;-86
2021/10/12 04:52:53;;;;;;;;;3.00;3.00;;;;;10.74;67.88;101777.66;5062393;28;45585;-87
2021/10/12 04:55:19;;;;;;;;;4.00;4.00;;;;;10.97;68.06;101838.53;5043979;28;45500;-85
2021/10/12 04:57:47;;;;;;;;;5.25;5.25;;;;;10.90;68.29;101827.53;5046331;28;45535;-85
2021/10/12 05:00:13;;;;;;;;;8.50;7.75;;;;;11.12;68.08;101875.28;5063407;28;45731;-87
2021/10/12 05:02:38;;;;;;;;;9.25;7.25;;;;;11.16;68.44;101884.69;5038686;28;47335;-86
2021/10/12 05:05:04;;;;;;;;;5.25;5.25;;;;;11.11;68.25;101854.41;5038214;28;45637;-87
2021/10/12 05:07:31;;;;;;;;;4.75;4.00;;;;;11.14;68.34;101859.47;5038052;28;45883;-87
2021/10/12 05:09:57;;;;;;;;;7.00;5.00;;;;;11.13;67.98;101866.47;5037346;28;48583;-85
2021/10/12 05:12:23;;;;;;;;;7.25;5.00;;;;;11.14;68.13;101870.81;5037268;28;46998;-87
2021/10/12 05:14:50;;;;;;;;;6.00;4.25;;;;;10.70;68.13;101797.13;5054181;28;45630;-86
2021/10/12 05:17:27;;;;;;;;;4.00;4.00;;;;;11.13;68.31;101857.75;5055591;28;45670;-86
2021/10/12 05:20:14;;;;;;;;;6.75;5.25;;;;;10.83;68.36;101799.94;5036770;28;47421;-85
2021/10/12 05:26:00;;;;;;;;;6.50;4.25;;;;;10.92;68.45;101805.53;5053566;28;45958;-86
2021/10/12 05:28:27;;;;;;;;;7.00;5.25;;;;;10.91;68.29;101803.00;5055089;28;45629;-85
2021/10/12 05:30:53;;;;;;;;;4.00;3.50;;;;;10.74;68.47;101790.78;5054869;28;46697;-84
2021/10/12 05:33:20;;;;;;;;;5.00;5.00;;;;;10.64;68.28;101755.50;5036430;28;48049;-85
2021/10/12 05:35:47;;;;;;;;;9.75;6.00;;;;;10.92;68.40;101800.28;5036565;28;45598;-84
2021/10/12 05:38:16;;;;;;;;;8.00;4.00;;;;;10.88;68.47;101788.28;5036554;28;45951;-85
2021/10/12 05:40:42;;;;;;;;;6.50;4.50;;;;;11.07;68.30;101816.97;5036790;28;46837;-86
2021/10/12 05:43:08;;;;;;;;;7.00;7.00;;;;;11.23;68.28;101845.84;5036344;28;48464;-86
2021/10/12 05:45:34;;;;;;;;;6.50;6.00;;;;;11.07;68.40;101824.00;5054598;28;45845;-86
2021/10/12 05:48:00;;;;;;;;;8.00;5.00;;;;;11.28;68.69;101854.34;5036692;28;45859;-84
2021/10/12 05:50:26;;;;;;;;;7.00;5.25;;;;;10.76;68.28;101754.00;5036662;28;48550;-86
2021/10/12 05:58:43;;;;;;;;;8.75;7.00;;;;;11.15;68.42;101833.16;5058201;28;45685;-88
2021/10/12 06:01:09;;;;;;;;;8.50;5.00;;;;;10.85;68.58;101777.94;5050307;28;46456;-86
2021/10/12 06:03:35;;;;;;;;;7.00;5.00;;;;;11.24;68.57;101864.13;5056162;28;46221;-86
2021/10/12 06:06:01;;;;;;;;;8.75;7.25;;;;;11.02;68.37;101829.50;5041744;28;45634;-87
2021/10/12 06:08:30;;;;;;;;;8.75;5.00;;;;;10.99;68.39;101821.81;5042812;28;45738;-85
2021/10/12 06:10:55;;;;;;;;;7.00;6.50;;;;;10.90;68.63;101802.16;5058513;28;45620;-86
2021/10/12 06:13:23;;;;;;;;;8.75;8.00;;;;;10.78;68.59;101767.88;5040727;28;47585;-85
2021/10/12 06:15:52;;;;;;;;;8.25;7.00;;;;;11.23;68.50;101851.94;5043052;28;45556;-85
2021/10/12 06:18:19;;;;;;;;;8.25;7.25;;;;;10.68;68.33;101764.91;5042980;28;46017;-87
2021/10/12 06:20:45;;;;;;;;;6.50;6.50;;;;;10.90;68.60;101802.16;5043763;28;47687;-86
2021/10/12 06:23:10;;;;;;;;;9.00;8.00;;;;;10.85;68.85;101804.16;5061043;28;45746;-84
2021/10/12 06:25:36;;;;;;;;;8.50;7.25;;;;;11.05;68.62;101833.75;5043978;28;45733;-86
2021/10/12 06:28:02;;;;;;;;;7.25;5.50;;;;;11.06;68.49;101823.19;5042867;28;46123;-85
2021/10/12 06:30:32;;;;;;;;;7.00;7.00;;;;;10.94;68.52;101816.81;5043232;28;46601;-87
2021/10/12 06:32:58;;;;;;;;;9.75;8.00;;;;;10.95;68.62;101820.28;5036718;28;47821;-87
2021/10/12 06:35:23;;;;;;;;;7.00;5.00;;;;;10.86;68.40;101797.16;5055522;28;45518;-86
2021/10/12 06:41:10;;;;;;;;;7.75;6.50;;;;;11.17;68.45;101848.81;5059023;28;46323;-87
2021/10/12 06:43:36;;;;;;;;;9.75;7.50;;;;;11.00;68.42;101813.00;5041501;28;47102;-90
2021/10/12 06:46:01;;;;;;;;;10.25;9.00;;;;;11.17;68.57;101840.97;5040149;28;46013;-87
2021/10/12 06:48:27;;;;;;;;;10.00;8.00;;;;;11.17;69.26;101851.44;5040868;28;46070;-88
2021/10/12 06:50:52;;;;;;;;;9.00;7.25;;;;;11.14;68.81;101848.97;5040169;28;47435;-88
2021/10/12 06:53:17;;;;;;;;;8.00;7.50;;;;;10.96;68.50;101832.44;5040508;28;47138;-88
2021/10/12 06:55:43;;;;;;;;;7.25;6.00;;;;;10.90;68.81;101823.13;5038989;28;45646;-77
2021/10/12 06:58:08;;;;;;;;;9.50;9.25;;;;;11.12;68.76;101861.34;5057060;28;45620;-77
2021/10/12 07:00:34;;;;;;;;;13.00;10.25;;;;;10.87;68.93;101823.28;5056813;28;46397;-77
2021/10/12 07:02:59;;;;;;;;;9.00;8.25;;;;;10.84;68.91;101810.34;5056657;28;46121;-77
2021/10/12 07:05:24;;;;;;;;;9.75;9.00;;;;;11.16;68.71;101861.09;5056608;28;45662;-78
2021/10/12 07:11:11;;;;;;;;;10.00;9.00;;;;;11.21;69.02;101845.09;5056562;28;45539;-78
2021/10/12 07:13:37;;;;;;;;;9.50;9.00;;;;;11.22;68.82;101836.31;5056756;28;45744;-77
2021/10/12 07:16:03;;;;;;;;;10.25;9.00;;;;;11.22;68.78;101836.31;5056779;28;45593;-76
2021/10/12 07:18:29;;;;;;;;;13.50;10.25;;;;;11.25;68.82;101842.22;5056767;28;45792;-77
2021/10/12 07:20:54;;;;;;;;;14.00;11.00;;;;;11.27;68.80;101837.75;5056561;28;45588;-77
2021/10/12 07:23:19;;;;;;;;;10.25;9.50;;;;;11.29;68.73;101837.66;5056505;28;46138;-76
2021/10/12 07:25:45;;;;;;;;;10.50;9.00;;;;;11.32;68.74;101838.34;5056115;28;45620;-78
2021/10/12 07:28:11;;;;;;;;;12.75;9.25;;;;;11.32;68.62;101820.00;5056305;28;45572;-76
2021/10/12 07:30:36;;;;;;;;;10.75;9.75;;;;;11.34;68.63;101823.34;5056462;28;45621;-77
2021/10/12 07:33:02;;;;;;;;;14.00;10.00;;;;;11.37;68.62;101827.59;5055950;28;46152;-77
2021/10/12 07:35:27;;;;;;;;;10.25;9.25;;;;;11.40;68.63;101832.66;5055892;28;45561;-77
2021/10/12 07:41:14;;;;;;;;;18.75;12.75;;;;;11.44;68.75;101828.97;5055909;28;45594;-76
2021/10/12 07:43:39;;;;;;;;;11.00;9.75;;;;;11.45;68.72;101820.13;5056270;28;46300;-78
2021/10/12 07:46:05;;;;;;;;;14.50;10.00;;;;;11.48;68.72;101816.50;5056002;28;45610;-77
2021/10/12 07:48:31;;;;;;;;;10.25;9.00;;;;;11.48;68.81;101825.22;5055898;28;45880;-78
2021/10/12 07:50:57;;;;;;;;;11.50;10.50;;;;;11.49;68.62;101824.31;5054444;28;46347;-78
2021/10/12 07:53:22;;;;;;;;;14.00;10.25;;;;;11.56;68.53;101830.88;5055656;28;45697;-78
2021/10/12 07:55:58;;;;;;;;;11.25;10.25;;;;;11.60;68.64;101829.81;5037475;28;45554;-76
2021/10/12 07:58:24;;;;;;;;;14.00;11.25;;;;;11.60;68.54;101821.09;5056021;28;45828;-77
2021/10/12 08:00:51;;;;;;;;;13.25;12.00;;;;;11.69;68.51;101831.91;5054974;28;46642;-77
2021/10/12 08:03:17;;;;;;;;;14.50;12.50;;;;;11.72;68.38;101828.25;5055464;28;45976;-77
2021/10/12 08:05:43;;;;;;;;;16.00;13.00;;;;;11.75;68.44;101830.75;5055265;28;45702;-77
2021/10/12 08:11:30;;;;;;;;;14.00;11.00;;;;;11.78;68.35;101812.19;5055517;28;46058;-78
2021/10/12 08:14:00;;;;;;;;;17.00;13.50;;;;;11.86;68.50;101822.28;5055690;28;46539;-76
2021/10/12 08:16:30;;;;;;;;;15.75;14.00;;;;;11.82;68.45;101805.84;5055565;28;45638;-78
2021/10/12 08:18:59;;;;;;;;;12.75;11.50;;;;;11.97;68.42;101822.50;5055571;28;45769;-77
2021/10/12 08:21:28;;;;;;;;;11.50;11.25;;;;;12.01;68.50;101819.59;5055651;28;46909;-78
2021/10/12 08:23:54;;;;;;;;;17.00;13.00;;;;;12.04;68.50;101814.16;5055151;28;46568;-78
2021/10/12 08:26:20;;;;;;;;;15.00;12.00;;;;;12.06;68.54;101817.56;5055156;28;45843;-76
2021/10/12 08:28:46;;;;;;;;;10.25;9.75;;;;;12.09;68.64;101812.13;5055780;28;45518;-76
2021/10/12 08:31:11;;;;;;;;;13.25;11.00;;;;;12.11;68.35;101818.13;5055450;28;45506;-77
2021/10/12 08:33:37;;;;;;;;;11.25;10.25;;;;;12.19;68.20;101822.97;5055261;28;45688;-76
2021/10/12 08:36:02;;;;;;;;;17.75;15.25;;;;;12.15;68.42;101811.75;5055203;28;45768;-76
2021/10/12 08:41:54;;;;;;;;;13.75;11.75;;;;;12.34;68.19;101801.03;5055059;28;45561;-78
2021/10/12 08:44:20;;;;;;;;;12.75;11.25;;;;;12.40;68.50;101800.66;5054974;28;46290;-77
2021/10/12 08:46:47;;;;;;;;;12.75;10.50;;;;;12.43;68.21;101797.84;5055136;28;45579;-77
2021/10/12 08:49:12;;;;;;;;;13.00;12.50;;;;;12.49;68.29;101797.47;5037212;28;45968;-76
2021/10/12 08:51:42;;;;;;;;;15.50;12.75;;;;;12.54;68.41;101794.56;5055457;28;45517;-77
2021/10/12 08:54:07;;;;;;;;;12.25;12.00;;;;;12.60;68.13;101792.44;5055220;28;46348;-76
2021/10/12 08:56:33;;;;;;;;;14.75;13.50;;;;;12.63;68.08;101794.03;5055392;28;45594;-77
2021/10/12 08:58:58;;;;;;;;;20.00;16.50;;;;;12.69;68.07;101783.13;5055287;28;45507;-76
2021/10/12 09:01:24;;;;;;;;;13.25;11.50;;;;;12.72;68.06;101780.31;5054252;28;45638;-78
2021/10/12 09:06:30;;;;;;;;;12.25;12.00;;;;;12.88;68.09;101785.47;5054965;28;45529;-76
2021/10/12 09:08:57;;;;;;;;;14.00;13.50;;;;;12.93;68.07;101781.63;5057226;28;45847;-77
2021/10/12 09:11:25;;;;;;;;;13.50;10.00;;;;;12.95;68.06;101774.50;5055965;28;45879;-76
2021/10/12 09:14:04;;;;;;;;;11.75;10.25;;;;;13.08;67.80;101771.91;5054682;28;46080;-77
2021/10/12 09:16:33;;;;;;;;;9.00;9.00;;;;;13.11;67.78;101755.97;5055018;28;45466;-76
2021/10/12 09:19:00;;;;;;;;;13.50;10.00;;;;;13.23;67.69;101770.97;5057809;28;45630;-76
2021/10/12 09:21:29;;;;;;;;;9.00;7.25;;;;;13.32;67.87;101775.69;5058492;28;46426;-77
2021/10/12 09:24:14;;;;;;;;;10.25;8.50;;;;;13.39;67.92;101758.53;5059114;28;46641;-77
2021/10/12 09:27:02;;;;;;;;;12.00;11.00;;;;;13.42;67.53;101760.13;5058693;28;45701;-77
2021/10/12 09:29:33;;;;;;;;;8.25;7.00;;;;;13.53;68.00;101775.25;5055694;28;46082;-76
2021/10/12 09:31:59;;;;;;;;;10.00;9.00;;;;;13.54;67.34;101759.34;5055181;28;47331;-77
2021/10/12 09:34:31;;;;;;;;;12.50;11.00;;;;;13.64;67.52;101762.22;5055147;28;46470;-76
2021/10/12 09:36:57;;;;;;;;;11.50;9.25;;;;;13.68;67.14;101767.19;5054340;28;45564;-76
2021/10/12 09:39:32;;;;;;;;;12.00;11.75;;;;;13.73;67.25;101769.50;5054608;28;45525;-77
2021/10/12 09:42:09;;;;;;;;;11.00;8.25;;;;;13.74;67.06;101750.97;5054932;28;46472;-77
2021/10/12 09:44:35;;;;;;;;;13.00;12.00;;;;;13.80;66.94;101745.31;5054531;28;46016;-77
2021/10/12 09:47:14;;;;;;;;;13.25;11.00;;;;;13.83;67.34;101749.50;5054806;28;45565;-77
2021/10/12 09:49:43;;;;;;;;;11.75;11.00;;;;;13.85;67.31;101737.94;5054618;28;45644;-77
2021/10/12 09:52:13;;;;;;;;;13.25;12.25;;;;;13.96;66.77;101750.41;5054088;28;45593;-77
2021/10/12 09:54:46;;;;;;;;;11.75;9.25;;;;;14.02;66.71;101751.78;5054123;28;45942;-76
2021/10/12 09:57:13;;;;;;;;;12.50;11.50;;;;;14.07;67.14;101750.53;5054376;28;45872;-77
2021/10/12 09:59:38;;;;;;;;;12.25;11.00;;;;;14.11;66.96;101749.38;5054361;28;45767;-78
2021/10/12 10:02:04;;;;;;;;;15.00;14.00;;;;;14.16;67.00;101752.53;5054217;28;46429;-77
2021/10/12 10:04:30;;;;;;;;;11.75;10.50;;;;;14.18;66.78;101755.91;5053925;28;45772;-76
2021/10/12 10:07:03;;;;;;;;;14.00;13.00;;;;;14.25;66.56;101748.44;5054126;28;45494;-76
2021/10/12 10:09:30;;;;;;;;;12.00;10.50;;;;;14.13;66.76;101728.19;5054057;28;45593;-77
2021/10/12 10:11:55;;;;;;;;;11.75;11.75;;;;;14.22;66.57;101735.47;5055809;28;46338;-77
2021/10/12 10:14:21;;;;;;;;;13.00;11.25;;;;;14.36;66.83;101747.72;5056533;28;46206;-76
2021/10/12 10:16:53;;;;;;;;;13.25;12.50;;;;;14.39;66.44;101736.97;5057579;28;45698;-77
2021/10/12 10:19:24;;;;;;;;;14.75;12.75;;;;;14.44;66.39;101735.72;5057405;28;45498;-78
2021/10/12 10:21:50;;;;;;;;;14.75;12.25;;;;;14.34;66.59;101713.53;5057156;28;46796;-77
2021/10/12 10:24:31;;;;;;;;;13.50;10.25;;;;;14.54;66.16;101736.75;5057237;28;46036;-78
2021/10/12 10:26:57;;;;;;;;;16.00;12.25;;;;;14.59;66.46;101736.44;5057210;28;45795;-77
2021/10/12 10:29:27;;;;;;;;;9.00;9.00;;;;;14.62;66.50;101729.16;5057213;28;45594;-77
2021/10/12 10:32:00;;;;;;;;;16.00;12.00;;;;;14.67;66.31;101732.31;5056955;28;46284;-76
2021/10/12 10:34:40;;;;;;;;;14.50;12.00;;;;;14.73;66.05;101724.94;5056907;28;46126;-75
2021/10/12 10:37:17;;;;;;;;;14.00;13.50;;;;;14.78;66.11;101712.25;5056740;28;45531;-77
2021/10/12 10:39:51;;;;;;;;;13.00;10.50;;;;;14.79;66.25;101704.19;5056981;28;45468;-77
2021/10/12 10:42:25;;;;;;;;;9.75;9.00;;;;;14.87;65.86;101712.44;5056605;28;47978;-76
2021/10/12 10:45:02;;;;;;;;;8.00;7.50;;;;;14.82;65.82;101690.81;5056568;28;47114;-77
2021/10/12 10:48:00;;;;;;;;;11.00;9.50;;;;;14.96;65.80;101714.41;5056643;28;45779;-78
2021/10/12 10:50:30;;;;;;;;;11.00;9.25;;;;;14.95;65.63;101690.78;4994579;28;45956;-77
2021/10/12 10:53:01;;;;;;;;;13.75;10.00;;;;;15.03;65.76;101705.09;4994681;28;46635;-78
2021/10/12 10:55:35;;;;;;;;;11.75;8.00;;;;;15.04;65.58;101695.38;4994508;28;45644;-78
2021/10/12 10:58:14;;;;;;;;;10.25;9.00;;;;;15.11;65.47;101702.72;4994280;28;45731;-78
2021/10/12 11:00:45;;;;;;;;;10.25;8.75;;;;;15.17;64.97;101703.28;4994621;28;45644;-78
2021/10/12 11:03:29;;;;;;;;;8.00;7.00;;;;;15.22;64.97;101711.69;4994320;28;46873;-78
2021/10/12 11:05:57;;;;;;;;;8.75;8.00;;;;;15.17;64.73;101693.53;4994196;28;47084;-79
2021/10/12 11:08:23;;;;;;;;;10.25;10.00;;;;;15.28;64.72;101696.22;4994091;28;45684;-78
2021/10/12 11:10:57;;;;;;;;;9.00;7.00;;;;;15.35;64.33;101708.03;4994294;28;45751;-78
2021/10/12 11:13:27;;;;;;;;;6.75;5.75;;;;;15.42;64.30;101698.72;4978138;28;47365;-79
2021/10/12 11:15:52;;;;;;;;;10.75;8.50;;;;;15.41;64.09;101688.25;4993979;28;46158;-78
2021/10/12 11:18:18;;;;;;;;;9.75;8.25;;;;;15.50;63.82;101698.13;4993757;28;45592;-78
2021/10/12 11:20:47;;;;;;;;;9.00;7.75;;;;;15.59;63.84;101680.81;4994050;28;46000;-78
2021/10/12 11:23:19;;;;;;;;;10.00;10.00;;;;;15.64;63.48;101691.88;4993993;28;46373;-78
2021/10/12 11:25:57;;;;;;;;;8.00;6.50;;;;;15.71;63.56;101691.28;4993582;28;47267;-79
2021/10/12 11:28:24;;;;;;;;;7.50;6.00;;;;;15.78;63.41;101684.56;5046306;28;45702;-77
2021/10/12 11:30:50;;;;;;;;;8.00;7.00;;;;;15.85;62.99;101690.25;5056493;28;45814;-77
2021/10/12 11:33:27;;;;;;;;;10.75;8.00;;;;;15.89;62.89;101681.13;5056181;28;46226;-78
2021/10/12 11:35:52;;;;;;;;;8.00;7.00;;;;;15.94;63.05;101668.38;5056045;28;45786;-78
2021/10/12 11:38:28;;;;;;;;;7.50;6.75;;;;;16.04;63.17;101671.16;5056088;28;45665;-78
2021/10/12 11:40:54;;;;;;;;;8.00;8.00;;;;;16.00;62.62;101657.34;5056265;28;45621;-78
2021/10/12 11:43:32;;;;;;;;;8.75;7.25;;;;;16.09;62.41;101648.69;5055885;28;46939;-76
2021/10/12 11:46:02;;;;;;;;;10.00;8.00;;;;;16.14;62.43;101653.66;5037438;28;46288;-76
2021/10/12 11:48:33;;;;;;;;;7.75;6.00;;;;;16.18;62.34;101649.81;5055676;28;45709;-76
2021/10/12 11:51:22;;;;;;;;;7.50;6.25;;;;;16.24;62.12;101647.53;5055932;28;45626;-77
2021/10/12 11:53:49;;;;;;;;;6.50;6.25;;;;;16.26;62.06;101632.38;5055399;28;46361;-75
2021/10/12 11:56:16;;;;;;;;;6.00;6.00;;;;;16.22;61.91;101620.34;5055696;28;46080;-75
2021/10/12 11:58:43;;;;;;;;;6.75;6.75;;;;;16.17;61.83;101606.66;5055657;28;45525;-76
2021/10/12 12:01:10;;;;;;;;;6.75;6.00;;;;;16.33;61.55;101628.28;5056077;28;45600;-75
2021/10/12 12:03:39;;;;;;;;;9.00;6.75;;;;;16.35;61.71;101630.81;5055598;28;45580;-77
2021/10/12 12:06:04;;;;;;;;;7.00;7.00;;;;;16.35;61.70;101621.09;5055700;28;45639;-77
2021/10/12 12:08:31;;;;;;;;;7.00;5.25;;;;;16.36;61.29;101611.31;5055295;28;45446;-75
2021/10/12 12:10:57;;;;;;;;;5.00;4.75;;;;;16.34;61.71;101610.63;5055754;28;45543;-75
2021/10/12 12:13:27;;;;;;;;;4.00;4.00;;;;;16.37;61.05;101613.00;5055543;28;46696;-76
2021/10/12 12:15:52;;;;;;;;;6.50;5.00;;;;;16.38;61.57;101614.69;5055510;28;46032;-76
2021/10/12 12:18:23;;;;;;;;;5.00;4.25;;;;;16.41;61.00;101606.50;5055400;28;45637;-76
2021/10/12 12:21:00;;;;;;;;;5.00;4.25;;;;;16.44;61.12;101603.63;5055539;28;45522;-77
2021/10/12 12:23:37;;;;;;;;;3.00;3.00;;;;;16.49;60.94;101596.16;5055364;28;45628;-75
2021/10/12 12:26:05;;;;;;;;;7.25;6.75;;;;;16.53;60.42;101600.25;5055123;28;45916;-77